createdAt,value
2018-12-07T00:01:51.111Z,3
2018-12-07T00:11:59.693Z,5
2018-12-07T00:22:07.163Z,5
2018-12-07T00:32:16.218Z,3
2018-12-07T00:42:24.528Z,3
2018-12-07T00:52:30.688Z,4
2018-12-07T01:02:38.419Z,3
2018-12-07T07:03:28.046Z,4
2018-12-07T07:08:43.028Z,6
2018-12-07T07:15:03.427Z,4
2018-12-07T07:25:06.483Z,2
2018-12-07T07:35:18.199Z,3
2018-12-07T07:52:14.786Z,5
2018-12-07T08:02:22.022Z,5
2018-12-07T08:12:27.555Z,4
2018-12-07T08:22:36.312Z,3
2018-12-07T08:32:44.740Z,3
2018-12-07T08:42:51.782Z,3
2018-12-07T09:00:05.990Z,5
2018-12-07T09:13:28.116Z,7
2018-12-07T09:23:37.159Z,4
2018-12-07T09:25:51.077Z,3
2018-12-07T09:35:55.161Z,3
2018-12-07T09:46:14.966Z,3
2018-12-07T09:56:22.920Z,3
2018-12-07T10:06:31.426Z,2
2018-12-07T10:13:47.436Z,5
2018-12-07T10:23:53.712Z,6
2018-12-07T10:32:16.761Z,4
2018-12-07T10:42:20.542Z,3
2018-12-07T10:52:27.537Z,3
2018-12-07T11:02:35.428Z,7
2018-12-07T11:12:39.673Z,5
2018-12-07T11:22:44.822Z,4
2018-12-07T11:32:52.570Z,11
2018-12-07T11:42:59.259Z,4
2018-12-07T11:53:20.851Z,4
2018-12-07T12:03:27.917Z,4
2018-12-07T12:13:33.787Z,3
2018-12-07T12:23:41.941Z,6
2018-12-07T12:33:48.324Z,3
2018-12-07T12:43:57.241Z,3
2018-12-07T12:54:06.104Z,5
2018-12-07T13:04:13.858Z,4
2018-12-07T13:14:23.384Z,7
2018-12-07T13:24:31.837Z,13
2018-12-07T13:34:39.699Z,9
2018-12-07T13:43:14.002Z,10
2018-12-07T13:53:20.598Z,14
2018-12-07T14:13:39.907Z,3
2018-12-07T14:23:48.446Z,3
2018-12-07T14:33:56.506Z,11
2018-12-07T14:41:17.858Z,9
2018-12-07T14:51:34.351Z,8
2018-12-07T15:01:42.317Z,10
2018-12-07T15:11:52.585Z,24
2018-12-07T15:22:02.414Z,21
2018-12-07T15:32:12.435Z,15
2018-12-07T15:42:21.803Z,31
2018-12-07T16:02:37.516Z,9
2018-12-07T16:12:48.637Z,7
2018-12-07T16:23:44.042Z,10
2018-12-07T16:33:51.379Z,17
2018-12-07T16:44:00.385Z,7
2018-12-07T16:48:15.130Z,6
2018-12-07T16:58:23.217Z,17
2018-12-07T17:08:32.866Z,8
2018-12-07T17:18:40.889Z,6
2018-12-07T17:28:53.150Z,10
2018-12-07T17:39:01.460Z,11
2018-12-07T17:49:10.881Z,16
2018-12-07T17:59:19.707Z,11
2018-12-07T18:09:29.096Z,10
2018-12-07T18:19:40.467Z,9
2018-12-07T18:22:54.965Z,6
2018-12-07T18:33:03.248Z,7
2018-12-07T18:43:10.654Z,10
2018-12-07T18:53:20.889Z,7
2018-12-07T19:03:32.604Z,9
2018-12-07T19:13:41.374Z,8
2018-12-07T19:23:49.687Z,7
2018-12-07T19:34:01.119Z,5
2018-12-07T19:44:10.212Z,14
2018-12-07T19:54:17.287Z,6
2018-12-07T20:04:27.962Z,7
2018-12-07T20:14:38.109Z,12
2018-12-07T20:24:46.192Z,8
2018-12-07T20:34:56.034Z,12
2018-12-07T20:45:00.509Z,10
2018-12-07T20:55:08.042Z,8
2018-12-07T21:02:31.322Z,9
2018-12-07T21:12:38.431Z,10
2018-12-07T21:22:48.940Z,7
2018-12-07T21:27:04.817Z,7
2018-12-07T21:37:13.581Z,6
2018-12-07T21:47:23.529Z,6
2018-12-07T21:57:31.907Z,6
2018-12-07T22:07:41.806Z,4
2018-12-07T22:17:48.306Z,5
2018-12-07T22:27:59.740Z,4
2018-12-07T22:38:08.964Z,5
2018-12-07T22:48:17.493Z,3
2018-12-07T22:58:21.898Z,2
2018-12-07T23:08:30.755Z,3
2018-12-07T23:18:37.455Z,4
2018-12-07T23:28:57.739Z,23
2018-12-07T23:39:06.408Z,30
2018-12-07T23:49:13.634Z,27
2018-12-07T23:59:19.648Z,39
